Capitol Logistics 2607

Operating for CKS



PANC
Ted Stevens Anchorage International Airport
Anchorage, Alaska
KORD
Chicago O'Hare International Airport
Chicago, Illinois

Route Details

Aircraft Information
Primary: Boeing 747-400BCF
Backup: Not Available
Route Data
Distance: 2842nm
Duration: 5h 21m
Recm'd Route: JOH J501 YAK NCA10 MITOM YQU YEG YYN ISN RWF HSTIN Q156 ZZIPR FYTTE6
Origin Wx: PANC 191153Z 15006KT 10SM FEW080 OVC095 13/08 A3004 RMK AO2 RAB10E42 SLP173 P0000 60000 T01330078 10161 20128 51006
Dest. Wx: KORD 191151Z 20010G19KT 10SM FEW055 SCT150 BKN250 23/18 A2978 RMK AO2 SLP079 70001 T02280183 10244 20222 58007 $
Notes: 2X PER WEEK